Time;durP1;ratioP1;P1;durP2;ratioP2;P2;SDS_P1;SDS_P2;PMS_P1;PMS_P2;Temp;Humidity;BMP_temperature;BMP_pressure;BME280_temperature;BME280_humidity;BME280_pressure;Samples;Min_cycle;Max_cycle;Signal;HPM_P1;HPM_P2
2024/01/16 00:02:03;;;;;;;10.63;10.13;;;;;;;;;;5041060;28;20525;-59
2024/01/16 00:04:30;;;;;;;10.93;10.40;;;;;;;;;;5023084;28;20389;-59
2024/01/16 00:06:55;;;;;;;11.05;10.45;;;;;;;;;;5022028;28;20022;-59
2024/01/16 00:09:20;;;;;;;10.93;10.40;;;;;;;;;;5022250;28;20040;-59
2024/01/16 00:11:46;;;;;;;10.75;10.25;;;;;;;;;;5033525;28;20033;-59
2024/01/16 00:14:11;;;;;;;10.20;9.70;;;;;;;;;;5028050;28;20013;-60
2024/01/16 00:16:43;;;;;;;10.32;9.82;;;;;;;;;;5032099;28;20096;-59
2024/01/16 00:19:09;;;;;;;10.27;9.77;;;;;;;;;;5028444;28;20049;-59
2024/01/16 00:21:38;;;;;;;10.90;10.35;;;;;;;;;;5026103;28;20077;-59
2024/01/16 00:24:04;;;;;;;10.73;10.23;;;;;;;;;;5026251;28;20033;-60
2024/01/16 00:26:29;;;;;;;10.90;10.35;;;;;;;;;;5036462;28;20025;-58
2024/01/16 00:28:54;;;;;;;10.65;10.15;;;;;;;;;;5029791;28;20022;-60
2024/01/16 00:31:20;;;;;;;10.30;9.80;;;;;;;;;;5035234;28;20036;-59
2024/01/16 00:33:45;;;;;;;10.82;10.32;;;;;;;;;;5029130;28;20393;-58
2024/01/16 00:36:11;;;;;;;10.50;10.00;;;;;;;;;;5026673;28;20021;-59
2024/01/16 00:38:36;;;;;;;10.32;9.82;;;;;;;;;;5032874;28;20037;-59
2024/01/16 00:41:01;;;;;;;10.32;9.82;;;;;;;;;;5031457;28;20027;-60
2024/01/16 00:43:27;;;;;;;10.88;10.38;;;;;;;;;;5035832;28;20108;-59
2024/01/16 00:45:52;;;;;;;10.82;10.32;;;;;;;;;;5032732;28;20083;-59
2024/01/16 00:48:19;;;;;;;14.27;13.40;;;;;;;;;;5028927;28;20040;-59
2024/01/16 00:50:46;;;;;;;10.90;10.40;;;;;;;;;;5032274;28;20037;-60
2024/01/16 00:53:11;;;;;;;11.07;10.52;;;;;;;;;;5025613;28;20026;-59
2024/01/16 00:55:36;;;;;;;11.63;11.02;;;;;;;;;;5022697;28;20117;-59
2024/01/16 00:58:02;;;;;;;10.70;10.20;;;;;;;;;;5031503;28;20097;-60
2024/01/16 01:00:29;;;;;;;11.00;10.45;;;;;;;;;;5030316;28;20041;-59
2024/01/16 01:02:55;;;;;;;10.68;10.18;;;;;;;;;;5031288;28;20083;-59
2024/01/16 01:05:20;;;;;;;10.60;10.10;;;;;;;;;;5024557;28;20053;-59
2024/01/16 01:07:46;;;;;;;11.30;10.70;;;;;;;;;;5036157;28;20062;-58
2024/01/16 01:10:11;;;;;;;10.55;10.05;;;;;;;;;;5031451;28;20026;-59
2024/01/16 01:12:36;;;;;;;11.13;10.52;;;;;;;;;;5032057;28;20133;-59
2024/01/16 01:15:02;;;;;;;10.40;9.90;;;;;;;;;;5022949;28;20029;-58
2024/01/16 01:17:27;;;;;;;10.77;10.27;;;;;;;;;;5035131;28;20092;-60
2024/01/16 01:19:53;;;;;;;10.40;9.90;;;;;;;;;;5033711;28;20108;-59
2024/01/16 01:22:18;;;;;;;10.60;10.10;;;;;;;;;;5028149;28;20021;-59
2024/01/16 01:24:43;;;;;;;11.18;10.57;;;;;;;;;;5025646;28;20441;-59
2024/01/16 01:27:09;;;;;;;11.05;10.45;;;;;;;;;;5024874;28;20203;-59
2024/01/16 01:29:34;;;;;;;10.27;9.77;;;;;;;;;;5027022;28;20496;-58
2024/01/16 01:31:59;;;;;;;10.50;10.00;;;;;;;;;;5029242;28;20030;-59
2024/01/16 01:34:25;;;;;;;10.38;9.88;;;;;;;;;;5032139;28;20032;-60
2024/01/16 01:36:50;;;;;;;10.80;10.30;;;;;;;;;;5021044;28;20022;-60
2024/01/16 01:39:15;;;;;;;10.70;10.20;;;;;;;;;;5027686;28;20067;-60
2024/01/16 01:41:41;;;;;;;10.00;9.50;;;;;;;;;;5037965;28;20477;-60
2024/01/16 01:44:06;;;;;;;10.20;9.70;;;;;;;;;;5032117;28;20468;-60
2024/01/16 01:46:32;;;;;;;10.00;9.50;;;;;;;;;;5033256;28;20022;-60
2024/01/16 01:48:58;;;;;;;10.20;9.70;;;;;;;;;;5031541;28;20109;-58
2024/01/16 01:51:24;;;;;;;11.05;10.50;;;;;;;;;;5035314;28;20014;-59
2024/01/16 01:53:50;;;;;;;10.40;9.90;;;;;;;;;;5027673;28;20029;-59
2024/01/16 01:56:17;;;;;;;11.27;10.68;;;;;;;;;;5037639;28;20032;-59
2024/01/16 01:58:47;;;;;;;10.45;9.95;;;;;;;;;;5029549;28;20013;-60
2024/01/16 02:01:13;;;;;;;11.52;10.93;;;;;;;;;;5028750;28;20025;-60
2024/01/16 02:03:43;;;;;;;11.43;10.82;;;;;;;;;;5028171;28;20029;-60
2024/01/16 02:06:09;;;;;;;11.00;10.45;;;;;;;;;;5030821;28;20072;-60
2024/01/16 02:08:35;;;;;;;11.18;10.57;;;;;;;;;;5028796;28;20485;-60
2024/01/16 02:11:00;;;;;;;11.32;10.73;;;;;;;;;;5016716;28;20026;-60
2024/01/16 02:13:25;;;;;;;12.27;11.57;;;;;;;;;;5029579;28;20030;-60
2024/01/16 02:15:51;;;;;;;11.57;10.98;;;;;;;;;;5029334;28;20072;-60
2024/01/16 02:18:17;;;;;;;11.77;11.10;;;;;;;;;;5021735;28;20677;-60
2024/01/16 02:20:43;;;;;;;10.80;10.27;;;;;;;;;;5027159;28;20033;-60
2024/01/16 02:23:09;;;;;;;9.95;9.45;;;;;;;;;;5027859;28;20389;-60
2024/01/16 02:25:35;;;;;;;10.48;9.98;;;;;;;;;;5026270;28;20033;-59
2024/01/16 02:28:01;;;;;;;11.23;10.63;;;;;;;;;;5025321;28;20838;-60
2024/01/16 02:30:26;;;;;;;10.43;9.93;;;;;;;;;;5024134;28;20025;-59
2024/01/16 02:32:51;;;;;;;10.27;9.77;;;;;;;;;;5022260;28;20067;-58
2024/01/16 02:35:18;;;;;;;10.10;9.60;;;;;;;;;;5029361;28;20060;-59
2024/01/16 02:37:43;;;;;;;10.43;9.93;;;;;;;;;;5026254;28;20040;-59
2024/01/16 02:40:09;;;;;;;11.00;10.40;;;;;;;;;;5026214;28;20029;-59
2024/01/16 02:42:36;;;;;;;10.48;9.98;;;;;;;;;;5022441;28;20053;-59
2024/01/16 02:45:03;;;;;;;10.05;9.55;;;;;;;;;;5033328;28;20511;-59
2024/01/16 02:47:29;;;;;;;10.40;9.90;;;;;;;;;;5030673;28;20488;-59
2024/01/16 02:49:54;;;;;;;10.18;9.68;;;;;;;;;;5030687;28;20049;-59
2024/01/16 02:52:19;;;;;;;10.30;9.80;;;;;;;;;;5021937;28;20060;-59
2024/01/16 02:54:45;;;;;;;10.23;9.73;;;;;;;;;;5023027;28;20060;-59
2024/01/16 02:57:10;;;;;;;10.38;9.88;;;;;;;;;;5020773;28;20050;-59
2024/01/16 02:59:35;;;;;;;10.18;9.68;;;;;;;;;;5029048;28;20028;-59
2024/01/16 03:02:01;;;;;;;11.18;10.57;;;;;;;;;;5034231;28;20041;-59
2024/01/16 03:04:26;;;;;;;10.00;9.50;;;;;;;;;;5031853;28;20041;-60
2024/01/16 03:06:51;;;;;;;10.00;9.50;;;;;;;;;;5030578;28;20025;-58
2024/01/16 03:09:18;;;;;;;10.48;9.98;;;;;;;;;;5028028;28;20037;-59
2024/01/16 03:11:43;;;;;;;10.50;10.00;;;;;;;;;;5030647;28;20029;-58
2024/01/16 03:14:08;;;;;;;10.18;9.68;;;;;;;;;;5027171;28;20017;-60
2024/01/16 03:16:34;;;;;;;10.85;10.27;;;;;;;;;;5035326;28;20076;-59
2024/01/16 03:18:59;;;;;;;10.93;10.32;;;;;;;;;;5023502;28;20045;-57
2024/01/16 03:21:24;;;;;;;10.20;9.70;;;;;;;;;;5032019;28;20029;-59
2024/01/16 03:23:50;;;;;;;10.63;10.13;;;;;;;;;;5026448;28;20116;-59
2024/01/16 03:26:15;;;;;;;10.55;10.05;;;;;;;;;;5031888;28;20480;-61
2024/01/16 03:28:41;;;;;;;10.85;10.30;;;;;;;;;;5030264;28;20056;-57
2024/01/16 03:31:06;;;;;;;10.55;10.05;;;;;;;;;;5031659;28;20059;-61
2024/01/16 03:33:34;;;;;;;10.32;9.82;;;;;;;;;;5028942;28;20083;-59
2024/01/16 03:36:00;;;;;;;9.70;9.30;;;;;;;;;;5024835;28;20025;-60
2024/01/16 03:38:25;;;;;;;10.25;9.75;;;;;;;;;;5022062;28;20026;-60
2024/01/16 03:40:51;;;;;;;10.15;9.65;;;;;;;;;;5022332;28;20472;-60
2024/01/16 03:43:17;;;;;;;11.38;10.77;;;;;;;;;;5018545;28;20139;-60
2024/01/16 03:45:42;;;;;;;10.43;9.93;;;;;;;;;;5030036;28;20183;-59
2024/01/16 03:48:07;;;;;;;10.65;10.15;;;;;;;;;;5026461;28;20029;-58
2024/01/16 03:50:34;;;;;;;11.00;10.40;;;;;;;;;;5029143;28;20105;-59
2024/01/16 03:52:59;;;;;;;10.23;9.73;;;;;;;;;;5026726;28;20022;-58
2024/01/16 03:55:24;;;;;;;10.52;10.02;;;;;;;;;;5028736;28;20030;-59
2024/01/16 03:57:50;;;;;;;10.27;9.77;;;;;;;;;;5027448;28;20081;-58
2024/01/16 04:00:16;;;;;;;11.40;10.80;;;;;;;;;;5028106;28;20025;-60
2024/01/16 04:02:41;;;;;;;11.00;10.40;;;;;;;;;;5025285;28;20094;-59
2024/01/16 04:05:07;;;;;;;10.68;10.18;;;;;;;;;;5018610;28;20014;-60
2024/01/16 04:07:33;;;;;;;10.57;10.07;;;;;;;;;;5016573;28;20017;-59
2024/01/16 04:09:58;;;;;;;10.65;10.15;;;;;;;;;;5033293;28;20428;-59
2024/01/16 04:12:23;;;;;;;10.20;9.70;;;;;;;;;;5029988;28;20040;-60
2024/01/16 04:14:49;;;;;;;10.57;10.07;;;;;;;;;;5034435;28;20025;-59
2024/01/16 04:17:14;;;;;;;11.63;11.00;;;;;;;;;;5034586;28;20022;-60
2024/01/16 04:19:40;;;;;;;10.90;10.30;;;;;;;;;;5030809;28;20447;-60
2024/01/16 04:22:06;;;;;;;10.45;9.95;;;;;;;;;;5031771;28;20143;-60
2024/01/16 04:24:31;;;;;;;10.40;9.90;;;;;;;;;;5033340;28;20033;-60
2024/01/16 04:26:56;;;;;;;10.07;9.57;;;;;;;;;;5036923;28;20033;-59
2024/01/16 04:29:22;;;;;;;10.35;9.85;;;;;;;;;;5031343;28;20071;-59
2024/01/16 04:31:48;;;;;;;11.30;10.70;;;;;;;;;;5021525;28;20084;-61
2024/01/16 04:34:13;;;;;;;10.85;10.35;;;;;;;;;;5030360;28;20033;-60
2024/01/16 04:36:38;;;;;;;11.02;10.45;;;;;;;;;;5026523;28;20097;-59
2024/01/16 04:39:04;;;;;;;10.88;10.32;;;;;;;;;;5021992;28;20018;-60
2024/01/16 04:41:29;;;;;;;10.45;9.95;;;;;;;;;;5032040;28;20029;-59
2024/01/16 04:43:54;;;;;;;10.52;10.02;;;;;;;;;;5026599;28;20033;-59
2024/01/16 04:46:20;;;;;;;11.30;10.70;;;;;;;;;;5042423;28;20033;-59
2024/01/16 04:48:45;;;;;;;10.60;10.10;;;;;;;;;;5024937;28;20029;-60
2024/01/16 04:51:10;;;;;;;10.80;10.27;;;;;;;;;;5028695;28;20033;-60
2024/01/16 04:53:36;;;;;;;11.15;10.55;;;;;;;;;;5027962;28;20017;-59
2024/01/16 04:56:02;;;;;;;10.52;10.02;;;;;;;;;;5026528;28;20026;-60
2024/01/16 04:58:27;;;;;;;10.52;10.02;;;;;;;;;;5024332;28;20030;-60
2024/01/16 05:00:53;;;;;;;10.85;10.30;;;;;;;;;;5022244;28;20033;-60
2024/01/16 05:03:18;;;;;;;10.77;10.25;;;;;;;;;;5030342;28;20052;-60
2024/01/16 05:05:43;;;;;;;11.52;10.93;;;;;;;;;;5022566;28;20029;-59
2024/01/16 05:08:09;;;;;;;10.35;9.85;;;;;;;;;;5033307;28;20036;-59
2024/01/16 05:10:34;;;;;;;11.15;10.55;;;;;;;;;;5032207;28;20021;-59
2024/01/16 05:13:00;;;;;;;11.52;10.93;;;;;;;;;;5028199;28;20029;-61
2024/01/16 05:15:25;;;;;;;10.40;9.90;;;;;;;;;;5031172;28;20433;-60
2024/01/16 05:17:50;;;;;;;10.40;9.90;;;;;;;;;;5027809;28;20076;-62
2024/01/16 05:20:16;;;;;;;10.60;10.10;;;;;;;;;;5028165;28;20465;-60
2024/01/16 05:22:41;;;;;;;13.02;12.23;;;;;;;;;;5023462;28;23409;-59
2024/01/16 05:25:07;;;;;;;11.30;10.70;;;;;;;;;;5023244;28;20067;-61
2024/01/16 05:27:32;;;;;;;11.15;10.55;;;;;;;;;;5027145;28;20075;-61
2024/01/16 05:29:58;;;;;;;13.10;12.30;;;;;;;;;;5032332;28;20025;-60
2024/01/16 05:32:23;;;;;;;11.18;10.57;;;;;;;;;;5027222;28;20040;-59
2024/01/16 05:34:48;;;;;;;12.07;11.38;;;;;;;;;;5029349;28;20366;-60
2024/01/16 05:37:14;;;;;;;11.48;10.88;;;;;;;;;;5034196;28;20022;-59
2024/01/16 05:39:39;;;;;;;11.27;10.68;;;;;;;;;;5036777;28;20463;-59
2024/01/16 05:42:05;;;;;;;11.20;10.60;;;;;;;;;;5024109;28;20087;-59
2024/01/16 05:44:30;;;;;;;12.88;12.07;;;;;;;;;;5020470;28;20025;-60
2024/01/16 05:46:55;;;;;;;10.93;10.38;;;;;;;;;;5025080;28;20022;-60
2024/01/16 05:49:21;;;;;;;11.65;11.02;;;;;;;;;;5024805;28;20079;-61
2024/01/16 05:51:46;;;;;;;11.65;11.02;;;;;;;;;;5023907;28;20034;-59
2024/01/16 05:54:11;;;;;;;11.18;10.57;;;;;;;;;;5023783;28;20022;-59
2024/01/16 05:56:37;;;;;;;11.43;10.82;;;;;;;;;;5026329;28;20018;-60
2024/01/16 05:59:02;;;;;;;11.30;10.70;;;;;;;;;;5026242;28;20205;-61
2024/01/16 06:01:28;;;;;;;10.63;10.13;;;;;;;;;;5024553;28;20033;-61
2024/01/16 06:03:53;;;;;;;10.70;10.20;;;;;;;;;;5025060;28;20021;-60
2024/01/16 06:06:19;;;;;;;10.48;9.98;;;;;;;;;;5024975;28;20022;-57
2024/01/16 06:08:44;;;;;;;10.07;9.57;;;;;;;;;;5027428;28;20512;-57
2024/01/16 06:11:10;;;;;;;10.43;9.93;;;;;;;;;;5023988;28;20078;-57
2024/01/16 06:13:36;;;;;;;10.55;10.05;;;;;;;;;;5023963;28;20434;-59
2024/01/16 06:16:02;;;;;;;11.30;10.70;;;;;;;;;;5026311;28;20034;-58
2024/01/16 06:18:27;;;;;;;10.90;10.30;;;;;;;;;;5025611;28;20042;-54
2024/01/16 06:20:52;;;;;;;11.38;10.77;;;;;;;;;;5027293;28;20029;-56
2024/01/16 06:23:18;;;;;;;11.48;10.88;;;;;;;;;;5023083;28;20040;-57
2024/01/16 06:25:43;;;;;;;10.40;9.90;;;;;;;;;;5023545;28;20057;-57
2024/01/16 06:28:08;;;;;;;11.48;10.88;;;;;;;;;;5022042;28;20115;-55
2024/01/16 06:30:34;;;;;;;12.45;11.75;;;;;;;;;;5021336;28;20112;-59
2024/01/16 06:32:59;;;;;;;11.52;10.93;;;;;;;;;;5022518;28;20037;-57
2024/01/16 06:35:25;;;;;;;10.52;10.02;;;;;;;;;;5028031;28;20032;-57
2024/01/16 06:37:50;;;;;;;11.48;10.88;;;;;;;;;;5026201;28;20446;-55
2024/01/16 06:40:16;;;;;;;11.07;10.48;;;;;;;;;;5021811;28;20029;-59
2024/01/16 06:42:42;;;;;;;11.80;11.15;;;;;;;;;;5024098;28;20021;-56
2024/01/16 06:45:08;;;;;;;12.40;11.70;;;;;;;;;;5023839;28;20397;-56
2024/01/16 06:47:33;;;;;;;11.60;11.00;;;;;;;;;;5027658;28;20117;-56
2024/01/16 06:49:58;;;;;;;10.18;9.68;;;;;;;;;;5031335;28;20013;-56
2024/01/16 06:52:24;;;;;;;10.65;10.15;;;;;;;;;;5023777;28;20029;-56
2024/01/16 06:54:50;;;;;;;11.05;10.45;;;;;;;;;;5027120;28;20033;-58
2024/01/16 06:57:15;;;;;;;10.35;9.85;;;;;;;;;;5026833;28;20061;-59
2024/01/16 06:59:41;;;;;;;11.18;10.57;;;;;;;;;;5025349;28;20048;-61
2024/01/16 07:02:06;;;;;;;10.68;10.18;;;;;;;;;;5020898;28;20114;-60
2024/01/16 07:04:32;;;;;;;11.52;10.93;;;;;;;;;;5021678;28;20060;-62
2024/01/16 07:06:59;;;;;;;10.70;10.20;;;;;;;;;;5022436;28;20053;-61
2024/01/16 07:09:24;;;;;;;10.45;9.95;;;;;;;;;;5014735;28;20040;-64
2024/01/16 07:11:50;;;;;;;9.40;9.00;;;;;;;;;;5019940;28;20029;-64
2024/01/16 07:14:15;;;;;;;9.40;9.00;;;;;;;;;;5026689;28;20029;-63
2024/01/16 07:16:40;;;;;;;11.35;10.75;;;;;;;;;;5022872;28;20021;-63
2024/01/16 07:19:06;;;;;;;10.65;10.15;;;;;;;;;;5023670;28;20038;-62
2024/01/16 07:21:31;;;;;;;10.40;9.90;;;;;;;;;;5026878;28;20025;-64
2024/01/16 07:23:57;;;;;;;10.52;10.02;;;;;;;;;;5026895;28;20040;-64
2024/01/16 07:26:24;;;;;;;11.52;10.93;;;;;;;;;;5017357;28;20034;-62
2024/01/16 07:28:49;;;;;;;11.30;10.70;;;;;;;;;;5018906;28;20104;-64
2024/01/16 07:31:16;;;;;;;10.60;10.10;;;;;;;;;;5026723;28;20140;-64
2024/01/16 07:33:42;;;;;;;10.90;10.40;;;;;;;;;;5021437;28;20040;-64
2024/01/16 07:36:08;;;;;;;10.30;9.80;;;;;;;;;;5024598;28;20120;-64
2024/01/16 07:38:33;;;;;;;10.23;9.73;;;;;;;;;;5030088;28;20029;-64
2024/01/16 07:40:59;;;;;;;10.55;10.05;;;;;;;;;;5030868;28;20088;-64
2024/01/16 07:43:25;;;;;;;11.82;11.23;;;;;;;;;;5027111;28;20037;-64
2024/01/16 07:45:50;;;;;;;11.18;10.65;;;;;;;;;;5031633;28;20120;-63
2024/01/16 07:48:15;;;;;;;10.55;10.05;;;;;;;;;;5032195;28;20053;-63
2024/01/16 07:50:41;;;;;;;12.20;11.57;;;;;;;;;;5030564;28;20056;-63
2024/01/16 07:53:06;;;;;;;10.65;10.15;;;;;;;;;;5021774;28;20025;-63
2024/01/16 07:55:32;;;;;;;10.80;10.30;;;;;;;;;;5024022;28;20100;-64
2024/01/16 07:57:57;;;;;;;12.45;11.75;;;;;;;;;;5018030;28;20022;-63
2024/01/16 08:00:22;;;;;;;13.35;12.55;;;;;;;;;;5029246;28;20018;-61
2024/01/16 08:02:48;;;;;;;12.57;11.88;;;;;;;;;;5033380;28;20032;-63
2024/01/16 08:05:14;;;;;;;12.00;11.40;;;;;;;;;;5025399;28;20021;-62
2024/01/16 08:07:41;;;;;;;11.82;11.23;;;;;;;;;;5028216;28;20587;-62
2024/01/16 08:10:08;;;;;;;11.55;10.95;;;;;;;;;;5028616;28;20024;-62
2024/01/16 08:12:33;;;;;;;11.38;10.77;;;;;;;;;;5024658;28;20033;-63
2024/01/16 08:14:59;;;;;;;11.88;11.27;;;;;;;;;;5030950;28;20025;-62
2024/01/16 08:17:24;;;;;;;11.07;10.57;;;;;;;;;;5025710;28;20042;-64
2024/01/16 08:19:49;;;;;;;11.75;11.15;;;;;;;;;;5024405;28;20827;-63
2024/01/16 08:22:15;;;;;;;11.98;11.38;;;;;;;;;;5024230;28;20427;-63
2024/01/16 08:24:40;;;;;;;10.52;10.02;;;;;;;;;;5030482;28;20477;-64
2024/01/16 08:27:05;;;;;;;10.40;9.90;;;;;;;;;;5031730;28;20388;-63
2024/01/16 08:29:31;;;;;;;10.88;10.38;;;;;;;;;;5029784;28;20033;-63
2024/01/16 08:31:56;;;;;;;11.32;10.77;;;;;;;;;;5022549;28;20037;-63
2024/01/16 08:34:21;;;;;;;11.15;10.65;;;;;;;;;;5030209;28;20034;-64
2024/01/16 08:36:47;;;;;;;11.02;10.52;;;;;;;;;;5027846;28;20075;-64
2024/01/16 08:39:12;;;;;;;10.70;10.20;;;;;;;;;;5028217;28;20075;-63
2024/01/16 08:41:38;;;;;;;11.63;11.05;;;;;;;;;;5028128;28;20024;-63
2024/01/16 08:44:04;;;;;;;11.13;10.63;;;;;;;;;;5028628;28;20030;-64
2024/01/16 08:46:29;;;;;;;12.70;12.10;;;;;;;;;;5030071;28;20040;-64
2024/01/16 08:48:55;;;;;;;11.18;10.68;;;;;;;;;;5034627;28;20469;-64
2024/01/16 08:51:20;;;;;;;11.23;10.73;;;;;;;;;;5032969;28;20591;-63
2024/01/16 08:53:45;;;;;;;11.18;10.68;;;;;;;;;;5028432;28;20071;-64
2024/01/16 08:56:12;;;;;;;11.57;11.07;;;;;;;;;;5030914;28;20051;-63
2024/01/16 08:58:38;;;;;;;11.13;10.63;;;;;;;;;;5020405;28;20389;-61
2024/01/16 09:01:04;;;;;;;11.50;11.00;;;;;;;;;;5023868;28;20030;-64
2024/01/16 09:03:30;;;;;;;11.35;10.85;;;;;;;;;;5042480;28;20059;-64
2024/01/16 09:05:55;;;;;;;11.55;11.05;;;;;;;;;;5027161;28;20100;-61
2024/01/16 09:08:21;;;;;;;11.70;11.20;;;;;;;;;;5023957;28;20105;-63
2024/01/16 09:10:46;;;;;;;12.05;11.55;;;;;;;;;;5024703;28;20022;-63
2024/01/16 09:13:12;;;;;;;11.63;11.13;;;;;;;;;;5027921;28;20465;-63
2024/01/16 09:15:38;;;;;;;12.10;11.60;;;;;;;;;;5028080;28;20132;-62
2024/01/16 09:18:03;;;;;;;11.88;11.38;;;;;;;;;;5024922;28;20116;-63
2024/01/16 09:20:28;;;;;;;12.80;12.20;;;;;;;;;;5029147;28;20025;-62
2024/01/16 09:22:54;;;;;;;12.32;11.77;;;;;;;;;;5030807;28;20022;-64
2024/01/16 09:25:20;;;;;;;12.70;12.10;;;;;;;;;;5027061;28;20029;-62
2024/01/16 09:27:46;;;;;;;12.18;11.68;;;;;;;;;;5030969;28;20037;-63
2024/01/16 09:30:12;;;;;;;12.15;11.65;;;;;;;;;;5027877;28;20481;-64
2024/01/16 09:32:37;;;;;;;12.52;11.93;;;;;;;;;;5027097;28;20120;-62
2024/01/16 09:35:06;;;;;;;12.20;11.70;;;;;;;;;;5029545;28;20109;-62
2024/01/16 09:37:31;;;;;;;12.13;11.63;;;;;;;;;;5028342;28;20362;-63
2024/01/16 09:39:57;;;;;;;12.70;12.10;;;;;;;;;;5021793;28;20041;-62
2024/01/16 09:42:22;;;;;;;13.07;12.48;;;;;;;;;;5025142;28;20815;-64
2024/01/16 09:44:48;;;;;;;13.18;12.57;;;;;;;;;;5019065;28;20033;-61
2024/01/16 09:47:15;;;;;;;12.90;12.30;;;;;;;;;;5024598;28;20531;-59
2024/01/16 09:49:41;;;;;;;15.40;14.60;;;;;;;;;;5021917;28;20029;-61
2024/01/16 09:52:06;;;;;;;13.30;12.70;;;;;;;;;;5024854;28;20026;-60
2024/01/16 09:54:31;;;;;;;12.60;12.00;;;;;;;;;;5019263;28;20588;-60
2024/01/16 09:56:58;;;;;;;13.85;13.15;;;;;;;;;;5019473;28;20597;-60
2024/01/16 09:59:26;;;;;;;12.75;12.15;;;;;;;;;;5027513;28;20033;-61
2024/01/16 10:01:52;;;;;;;16.15;15.25;;;;;;;;;;5021892;28;20030;-60
2024/01/16 10:04:17;;;;;;;12.77;12.18;;;;;;;;;;5019945;28;20072;-59
2024/01/16 10:06:45;;;;;;;12.68;12.07;;;;;;;;;;5020676;28;20056;-59
2024/01/16 10:09:12;;;;;;;13.38;12.68;;;;;;;;;;5024892;28;20084;-60
2024/01/16 10:11:37;;;;;;;12.23;11.63;;;;;;;;;;5026931;28;20018;-60
2024/01/16 10:14:02;;;;;;;12.38;11.77;;;;;;;;;;5019838;28;20021;-61
2024/01/16 10:16:47;;;;;;;11.45;10.95;;;;;;;;;;5029982;28;20033;-61
2024/01/16 10:19:12;;;;;;;12.02;11.43;;;;;;;;;;5017906;28;20076;-64
2024/01/16 10:21:37;;;;;;;11.43;10.93;;;;;;;;;;5030034;28;20110;-64
2024/01/16 10:24:13;;;;;;;11.90;11.30;;;;;;;;;;5026711;28;20183;-70
2024/01/16 10:26:38;;;;;;;12.13;11.52;;;;;;;;;;5022633;28;20615;-63
2024/01/16 10:29:04;;;;;;;11.15;10.65;;;;;;;;;;5021978;28;20112;-63
2024/01/16 10:31:31;;;;;;;12.30;11.70;;;;;;;;;;5025696;28;20385;-62
2024/01/16 10:33:56;;;;;;;11.00;10.50;;;;;;;;;;5023621;28;20440;-64
2024/01/16 10:36:23;;;;;;;11.63;11.02;;;;;;;;;;5029915;28;20073;-62
2024/01/16 10:38:51;;;;;;;11.15;10.65;;;;;;;;;;5025240;28;20029;-63
2024/01/16 10:41:17;;;;;;;11.85;11.25;;;;;;;;;;5027671;28;20034;-64
2024/01/16 10:43:46;;;;;;;11.25;10.75;;;;;;;;;;5021411;28;20017;-64
2024/01/16 10:46:13;;;;;;;11.18;10.68;;;;;;;;;;5026028;28;20021;-63
2024/01/16 10:48:41;;;;;;;11.23;10.70;;;;;;;;;;5019708;28;20155;-63
2024/01/16 10:51:08;;;;;;;11.90;11.30;;;;;;;;;;5023089;28;20029;-61
2024/01/16 10:53:34;;;;;;;11.02;10.52;;;;;;;;;;5020331;28;20034;-63
2024/01/16 10:56:00;;;;;;;12.15;11.55;;;;;;;;;;5024629;28;20029;-63
2024/01/16 10:58:26;;;;;;;11.30;10.80;;;;;;;;;;5025477;28;20017;-64
2024/01/16 11:00:53;;;;;;;11.90;11.30;;;;;;;;;;5020578;28;20021;-64
2024/01/16 11:03:19;;;;;;;11.23;10.73;;;;;;;;;;5036771;28;20394;-64
2024/01/16 11:05:46;;;;;;;11.52;10.93;;;;;;;;;;5018356;28;20057;-61
2024/01/16 11:08:13;;;;;;;10.52;10.02;;;;;;;;;;5018200;28;20588;-63
2024/01/16 11:10:39;;;;;;;11.82;11.23;;;;;;;;;;5024532;28;20041;-64
2024/01/16 11:13:04;;;;;;;11.50;10.93;;;;;;;;;;5014913;28;20499;-65
2024/01/16 11:15:31;;;;;;;11.75;11.15;;;;;;;;;;5023217;28;20022;-62
2024/01/16 11:17:57;;;;;;;10.88;10.38;;;;;;;;;;5027040;28;20045;-62
2024/01/16 11:20:23;;;;;;;10.57;10.07;;;;;;;;;;5030851;28;20097;-64
2024/01/16 11:22:49;;;;;;;10.95;10.45;;;;;;;;;;5034026;28;20444;-62
2024/01/16 11:25:15;;;;;;;11.18;10.68;;;;;;;;;;5025890;28;20028;-63
2024/01/16 11:27:41;;;;;;;11.10;10.60;;;;;;;;;;5031260;28;20097;-59
2024/01/16 11:30:07;;;;;;;11.18;10.68;;;;;;;;;;5036159;28;20481;-64
2024/01/16 11:32:37;;;;;;;11.43;10.90;;;;;;;;;;5027164;28;20040;-63
2024/01/16 11:35:05;;;;;;;11.05;10.55;;;;;;;;;;5031284;28;20323;-63
2024/01/16 11:37:33;;;;;;;11.50;10.95;;;;;;;;;;5030306;28;20022;-64
2024/01/16 11:40:13;;;;;;;12.20;11.60;;;;;;;;;;5031631;28;20021;-63
2024/01/16 11:42:42;;;;;;;11.35;10.82;;;;;;;;;;5033050;28;20473;-64
2024/01/16 11:45:08;;;;;;;11.63;11.02;;;;;;;;;;5031187;28;20116;-62
2024/01/16 11:47:34;;;;;;;11.68;11.07;;;;;;;;;;5025788;28;20093;-64
2024/01/16 11:50:12;;;;;;;12.32;11.73;;;;;;;;;;5029708;28;20078;-63
2024/01/16 11:52:42;;;;;;;11.70;11.10;;;;;;;;;;5030153;28;20049;-64
2024/01/16 11:55:37;;;;;;;11.90;11.30;;;;;;;;;;5027323;28;20063;-63
2024/01/16 11:58:05;;;;;;;11.40;10.80;;;;;;;;;;4995678;28;20852;-63
2024/01/16 12:00:32;;;;;;;10.90;10.40;;;;;;;;;;5032392;28;20021;-63
2024/01/16 12:03:01;;;;;;;11.18;10.68;;;;;;;;;;5032648;28;20029;-63
2024/01/16 12:05:26;;;;;;;10.95;10.45;;;;;;;;;;5030240;28;20018;-63
2024/01/16 12:07:54;;;;;;;11.27;10.73;;;;;;;;;;5030957;28;20068;-63
2024/01/16 12:10:20;;;;;;;12.05;11.45;;;;;;;;;;5017957;28;20386;-62
2024/01/16 12:12:46;;;;;;;11.15;10.65;;;;;;;;;;5027671;28;20040;-61
2024/01/16 12:15:18;;;;;;;10.77;10.27;;;;;;;;;;5022827;28;20116;-62
2024/01/16 12:17:57;;;;;;;11.95;11.35;;;;;;;;;;5034100;28;20125;-61
2024/01/16 12:20:22;;;;;;;11.18;10.68;;;;;;;;;;5027154;28;20576;-62
2024/01/16 12:23:01;;;;;;;11.85;11.25;;;;;;;;;;5027488;28;20025;-62
2024/01/16 12:25:27;;;;;;;10.57;10.07;;;;;;;;;;5027890;28;20076;-60
2024/01/16 12:27:56;;;;;;;11.80;11.20;;;;;;;;;;5022832;28;20044;-62
2024/01/16 12:30:23;;;;;;;12.77;12.07;;;;;;;;;;5025604;28;20022;-62
2024/01/16 12:32:49;;;;;;;11.98;11.38;;;;;;;;;;5027265;28;20380;-61
2024/01/16 12:35:19;;;;;;;11.00;10.50;;;;;;;;;;5022354;28;20022;-59
2024/01/16 12:37:56;;;;;;;10.95;10.45;;;;;;;;;;5032905;28;20040;-62
2024/01/16 12:40:22;;;;;;;12.45;11.80;;;;;;;;;;5021527;28;20108;-62
2024/01/16 12:42:49;;;;;;;10.80;10.30;;;;;;;;;;5030267;28;20117;-62
2024/01/16 12:45:15;;;;;;;11.13;10.63;;;;;;;;;;5039680;28;20418;-62
2024/01/16 12:47:40;;;;;;;11.00;10.50;;;;;;;;;;5028718;28;20097;-65
2024/01/16 12:50:05;;;;;;;11.00;10.50;;;;;;;;;;5031259;28;20747;-63
2024/01/16 12:52:32;;;;;;;11.07;10.57;;;;;;;;;;5027456;28;20038;-62
2024/01/16 12:55:04;;;;;;;11.95;11.35;;;;;;;;;;5026230;28;20045;-63
2024/01/16 12:57:29;;;;;;;11.90;11.30;;;;;;;;;;5022554;28;20353;-62
2024/01/16 12:59:57;;;;;;;11.32;10.80;;;;;;;;;;5018591;28;20076;-63
2024/01/16 13:02:23;;;;;;;11.52;10.93;;;;;;;;;;5028740;28;20552;-62
2024/01/16 13:04:56;;;;;;;10.52;10.02;;;;;;;;;;5021769;28;20034;-61
2024/01/16 13:07:22;;;;;;;10.97;10.47;;;;;;;;;;5027492;28;20108;-61
2024/01/16 13:09:47;;;;;;;11.02;10.52;;;;;;;;;;5029756;28;20109;-63
2024/01/16 13:12:19;;;;;;;11.45;10.85;;;;;;;;;;5029981;28;20053;-62
2024/01/16 13:14:44;;;;;;;10.70;10.20;;;;;;;;;;5025937;28;20029;-63
2024/01/16 13:17:10;;;;;;;10.70;10.20;;;;;;;;;;5028584;28;20080;-63
2024/01/16 13:19:36;;;;;;;11.30;10.73;;;;;;;;;;5026267;28;20029;-63
2024/01/16 13:22:01;;;;;;;11.77;11.18;;;;;;;;;;5028545;28;20041;-62
2024/01/16 13:24:27;;;;;;;13.00;12.30;;;;;;;;;;5024801;28;20404;-63
2024/01/16 13:26:52;;;;;;;10.32;9.82;;;;;;;;;;5023005;28;20136;-63
2024/01/16 13:29:19;;;;;;;11.25;10.75;;;;;;;;;;5029781;28;20120;-63
2024/01/16 13:31:44;;;;;;;11.60;11.00;;;;;;;;;;5023408;28;20071;-62
2024/01/16 13:34:09;;;;;;;11.80;11.20;;;;;;;;;;5025665;28;20415;-62
2024/01/16 13:36:35;;;;;;;11.98;11.38;;;;;;;;;;5024846;28;20040;-63
2024/01/16 13:39:00;;;;;;;11.05;10.55;;;;;;;;;;5029487;28;20032;-63
2024/01/16 13:41:25;;;;;;;11.93;11.32;;;;;;;;;;5021638;28;20080;-62
2024/01/16 13:43:51;;;;;;;12.15;11.55;;;;;;;;;;5029067;28;20397;-63
2024/01/16 13:46:17;;;;;;;11.68;11.07;;;;;;;;;;5027504;28;20038;-62
2024/01/16 13:48:43;;;;;;;11.50;10.90;;;;;;;;;;5019956;28;20820;-62
2024/01/16 13:51:08;;;;;;;11.32;10.77;;;;;;;;;;5025883;28;20017;-62
2024/01/16 13:53:34;;;;;;;11.93;11.32;;;;;;;;;;5023184;28;20032;-62
2024/01/16 13:56:00;;;;;;;11.10;10.60;;;;;;;;;;5020024;28;20068;-62
2024/01/16 13:58:26;;;;;;;11.73;11.13;;;;;;;;;;5018210;28;20029;-62
2024/01/16 14:00:51;;;;;;;11.30;10.77;;;;;;;;;;5020284;28;20480;-64
2024/01/16 14:03:17;;;;;;;11.23;10.68;;;;;;;;;;5019153;28;20045;-62
2024/01/16 14:05:43;;;;;;;11.00;10.50;;;;;;;;;;5021453;28;20040;-63
2024/01/16 14:08:11;;;;;;;11.38;10.77;;;;;;;;;;5021386;28;20112;-61
2024/01/16 14:10:37;;;;;;;12.18;11.57;;;;;;;;;;5023096;28;20034;-61
2024/01/16 14:13:04;;;;;;;10.35;9.85;;;;;;;;;;5029475;28;20017;-61